Weather reports worldwide

Advertisment
Zugspitze, Germany (10961): temperature & dewpoint: 14.06.2019 06:00:00 - 20.06.2019 06:00:00 (CEST)Zugspitze, Germany (10961): wind speed & gusts: 14.06.2019 06:00:00 - 20.06.2019 06:00:00 (CEST)Zugspitze, Germany (10961): wind direction: 14.06.2019 06:00:00 - 20.06.2019 06:00:00 (CEST)Zugspitze, Germany (10961): visibility: 14.06.2019 06:00:00 - 20.06.2019 06:00:00 (CEST)Zugspitze, Germany (10961): sunshine duration: 14.06.2019 06:00:00 - 20.06.2019 06:00:00 (CEST)
Date & Time tt [°C] td [°C] ff [km/h] ff [kn] fx [km/h] fx [kn] dd vv [km] sd [min]
20.06.2019 06:00:00 3,5 0,5 17 9 24 13 WSW 64 0
20.06.2019 05:00:00 3,7 0,9 20 11 32 17 WSW 59 0
20.06.2019 04:00:00 3,6 0,4 16 9 27 14 SSW 75 0
20.06.2019 03:00:00 2,2 2,0 18 10 34 18 WSW 51 0
20.06.2019 02:00:00 2,5 2,3 29 16 44 24 WSW - 0
20.06.2019 01:00:00 4,7 3,2 9 5 22 12 SSE 46 0
20.06.2019 00:00:00 5,1 3,1 11 6 22 12 S 52 0
19.06.2019 23:00:00 5,0 3,9 15 8 18 10 SE 29 0
19.06.2019 22:00:00 5,6 3,7 10 5 16 8 SSE 51 13
19.06.2019 21:00:00 7,8 3,3 6 3 16 9 SSW 68 59
19.06.2019 20:00:00 8,2 3,9 5 3 11 6 WSW 50 60
19.06.2019 19:00:00 6,5 2,3 6 3 12 6 NNW 61 39
19.06.2019 18:00:00 7,7 3,0 4 2 14 8 NW 75 31
19.06.2019 17:00:00 6,0 3,0 5 3 14 8 NNW 71 17
19.06.2019 16:00:00 6,1 1,5 5 3 12 6 NNW 65 30
19.06.2019 15:00:00 5,9 1,7 5 3 19 11 NW 56 43
19.06.2019 14:00:00 6,0 1,1 6 3 16 9 WNW 75 35
19.06.2019 13:00:00 5,4 0,4 7 4 16 8 WNW 75 57
19.06.2019 12:00:00 4,9 -0,5 4 2 10 6 N 75 60
19.06.2019 11:00:00 4,8 -1,4 3 2 18 10 N 75 60
19.06.2019 10:00:00 4,7 -0,8 12 6 20 11 SE 75 60
19.06.2019 09:00:00 5,7 -1,6 6 4 21 12 SSE 69 42
19.06.2019 08:00:00 3,8 -1,9 22 12 40 22 SE 75 11
19.06.2019 07:00:00 3,7 -3,3 30 16 44 24 SSW 3,6 0
19.06.2019 06:00:00 3,5 -0,8 24 13 32 18 SW 74 0
19.06.2019 05:00:00 3,7 -0,2 11 6 29 16 WSW 69 0
19.06.2019 04:00:00 3,9 -0,1 13 7 32 18 W 75 0
19.06.2019 03:00:00 4,1 0,3 21 11 34 19 WSW 75 0
19.06.2019 02:00:00 4,0 1,7 27 15 36 19 WSW 45 0
19.06.2019 01:00:00 3,0 1,9 15 8 20 11 SE 73 0
19.06.2019 00:00:00 2,3 1,4 10 5 32 17 ESE 13 0
18.06.2019 23:00:00 3,5 3,4 19 10 34 19 S 0,9 0
18.06.2019 22:00:00 5,0 4,2 10 5 15 8 N 23 0
18.06.2019 21:00:00 4,8 4,3 7 4 11 6 NNE 1,3 2
18.06.2019 20:00:00 6,2 3,3 6 3 13 7 N 47 57
18.06.2019 19:00:00 5,2 4,4 10 5 16 8 NNE 0,1 2
18.06.2019 18:00:00 5,7 5,3 6 4 13 7 NNW - 5
18.06.2019 17:00:00 6,8 5,8 3 2 10 5 NW - 23
18.06.2019 16:00:00 6,6 5,7 5 3 12 7 NW - 36
18.06.2019 15:00:00 8,0 4,3 4 2 13 7 ESE 0,4 44
18.06.2019 14:00:00 8,5 2,3 4 2 9 5 NNE 36 58
18.06.2019 13:00:00 7,4 1,0 4 2 16 9 SE 61 60
18.06.2019 12:00:00 6,0 0,5 6 3 21 11 W 71 60
18.06.2019 11:00:00 6,1 -3,1 13 7 25 13 WSW 75 60
18.06.2019 10:00:00 5,2 -1,4 13 7 25 13 WSW 75 60
18.06.2019 09:00:00 4,5 -1,4 13 7 29 16 WSW 75 60
18.06.2019 08:00:00 4,0 -1,9 18 10 33 18 W 75 60
18.06.2019 07:00:00 3,6 -1,6 17 9 35 19 WNW 75 18
18.06.2019 06:00:00 3,9 -3,2 16 8 30 16 W 75 27
18.06.2019 05:00:00 3,8 -4,4 19 11 29 16 W 75 0
18.06.2019 04:00:00 3,9 -3,9 16 9 25 14 W 75 0
18.06.2019 03:00:00 4,0 -4,0 16 8 23 12 WSW 75 0
18.06.2019 02:00:00 4,2 -5,5 11 6 23 12 WSW 75 0
18.06.2019 01:00:00 4,0 3,3 16 8 20 11 SSW 12 0
18.06.2019 00:00:00 4,1 3,3 9 5 13 7 WSW 19 0
17.06.2019 23:00:00 4,0 2,8 6 3 10 6 N 26 0
17.06.2019 22:00:00 4,3 3,2 6 3 16 9 NNW 26 10
17.06.2019 21:00:00 4,2 3,2 10 6 16 9 NNW 21 17
17.06.2019 20:00:00 4,7 3,1 7 4 10 5 N 33 0
17.06.2019 19:00:00 5,3 3,6 5 3 12 7 W 16 11
17.06.2019 18:00:00 8,7 3,7 6 3 18 10 SSE 66 37
17.06.2019 17:00:00 7,4 3,6 10 6 18 10 S 69 39
17.06.2019 16:00:00 7,2 3,0 12 6 19 10 S 75 29
17.06.2019 15:00:00 6,0 3,3 14 8 23 12 SE 31 50
17.06.2019 14:00:00 5,9 2,6 15 8 27 14 SE 38 59
17.06.2019 13:00:00 5,5 0,3 18 10 24 13 SSE 75 60
17.06.2019 12:00:00 6,1 0,1 15 8 23 12 SSE 63 60
17.06.2019 11:00:00 6,0 0,1 13 7 24 13 S 75 60
17.06.2019 10:00:00 5,0 0,1 16 9 29 16 SW 55 60
17.06.2019 09:00:00 4,2 -0,6 21 12 28 15 SW 53 60
17.06.2019 08:00:00 3,7 -0,4 22 12 27 14 SSW 62 60
17.06.2019 07:00:00 3,3 -0,5 14 7 18 10 SW 71 60
17.06.2019 06:00:00 2,7 -0,6 13 7 24 13 SSW 72 9
17.06.2019 05:00:00 1,6 0,3 22 12 29 16 S 52 0
17.06.2019 04:00:00 1,3 0,1 18 10 27 15 SE 0,3 0
17.06.2019 03:00:00 0,5 0,2 20 11 32 18 ESE 0,9 0
17.06.2019 02:00:00 0,6 0,4 25 13 29 16 ESE 0,1 0
17.06.2019 01:00:00 0,7 0,5 17 9 23 12 ESE - 0
17.06.2019 00:00:00 0,8 0,6 11 6 16 9 SE 0,2 0
16.06.2019 23:00:00 0,9 0,9 11 6 16 9 ESE 0,2 0
16.06.2019 22:00:00 0,6 0,5 4 2 11 6 NNW 1,6 0
16.06.2019 21:00:00 0,8 0,8 7 4 14 7 NNW - 0
16.06.2019 20:00:00 1,1 1,1 6 3 16 8 NNW - 0
16.06.2019 19:00:00 1,3 1,3 8 4 14 8 NNW - 0
16.06.2019 18:00:00 1,1 0,9 7 4 12 7 NNW - 0
16.06.2019 17:00:00 1,5 1,1 4 2 16 9 NW - 0
16.06.2019 16:00:00 2,1 1,0 4 2 9 5 S - 0
16.06.2019 15:00:00 2,5 1,5 4 2 10 5 SE - 0
16.06.2019 14:00:00 2,3 1,4 4 2 14 8 SSW - 0
16.06.2019 13:00:00 1,5 0,9 4 2 13 7 SSE - 0
16.06.2019 12:00:00 0,7 0,3 3 2 19 10 SW - 6
16.06.2019 11:00:00 -0,1 -0,1 5 3 13 7 SW 0,2 13
16.06.2019 10:00:00 -1,2 -1,2 10 5 20 11 W 6 10
16.06.2019 09:00:00 -1,2 -1,2 14 8 21 11 W 0,1 0
16.06.2019 08:00:00 -0,3 -0,3 13 7 25 13 NNW - 0
16.06.2019 07:00:00 -0,2 -0,3 17 9 36 19 WNW - 0
16.06.2019 06:00:00 -0,5 -0,6 17 9 41 22 WNW 0,1 0
16.06.2019 05:00:00 -1,0 -1,1 29 16 40 21 WSW 12 0
16.06.2019 04:00:00 0,3 0,3 18 10 31 17 WSW 0,1 0
16.06.2019 03:00:00 0,2 0,2 18 10 35 19 W - 0
16.06.2019 02:00:00 1,3 1,3 14 8 31 17 WSW - 0
16.06.2019 01:00:00 2,2 2,2 14 7 28 15 W 0,4 0
16.06.2019 00:00:00 4,1 4,1 16 9 29 16 E 0,1 0
15.06.2019 23:00:00 4,3 4,3 24 13 38 21 ESE - 0
15.06.2019 22:00:00 4,3 4,3 29 15 39 21 ESE - 0
15.06.2019 21:00:00 4,2 4,2 30 16 38 20 ESE - 0
15.06.2019 20:00:00 4,3 4,3 35 19 40 22 ESE - 0
15.06.2019 19:00:00 5,3 5,2 25 13 34 18 ESE - 5
15.06.2019 18:00:00 7,2 4,5 16 8 22 12 ESE 10 11
15.06.2019 17:00:00 6,6 5,2 21 11 30 16 ESE 0,1 35
15.06.2019 16:00:00 6,8 5,8 22 12 28 15 ESE 0,1 44
15.06.2019 15:00:00 7,3 5,7 16 9 29 16 SE 0,1 54
15.06.2019 14:00:00 6,6 4,7 21 11 29 15 SE 8 58
15.06.2019 13:00:00 6,7 3,7 20 11 30 16 ESE 31 57
15.06.2019 12:00:00 6,9 3,7 18 10 28 15 SE 34 51
15.06.2019 11:00:00 7,1 2,8 18 10 24 13 ESE 26 60
15.06.2019 10:00:00 7,7 1,9 10 6 24 13 ESE 27 60
15.06.2019 09:00:00 6,6 1,3 16 8 40 22 SSE 30 60
15.06.2019 08:00:00 6,1 1,0 31 17 43 23 S 27 60
15.06.2019 07:00:00 5,5 1,1 31 17 49 26 SSE 30 46
15.06.2019 06:00:00 5,1 0,9 29 16 59 32 S 33 0
15.06.2019 05:00:00 5,4 0,7 48 26 73 40 SSE 35 0
15.06.2019 04:00:00 5,3 1,2 35 19 65 35 SE 42 0
15.06.2019 03:00:00 5,7 0,9 38 21 74 40 SE 50 0
15.06.2019 02:00:00 6,0 0,8 52 28 79 42 SE 52 0
15.06.2019 01:00:00 6,5 0,4 39 21 63 34 SSE 38 0
15.06.2019 00:00:00 6,8 0,2 27 14 64 35 ESE 41 0
14.06.2019 23:00:00 7,2 0,7 33 18 49 26 SE 47 0
14.06.2019 22:00:00 7,6 0,1 30 16 55 30 ESE 48 0
14.06.2019 21:00:00 7,7 2,0 35 19 53 28 ESE 55 0
14.06.2019 20:00:00 8,4 2,1 34 18 53 29 ESE 64 0
14.06.2019 19:00:00 9,2 3,6 31 17 64 35 SE 73 50
14.06.2019 18:00:00 9,5 3,3 42 23 64 34 SE 62 58
14.06.2019 17:00:00 9,5 4,9 36 19 61 33 SE 54 58
14.06.2019 16:00:00 10,8 -0,8 26 14 41 22 SSE 75 48
14.06.2019 15:00:00 10,6 -0,9 18 10 40 22 ESE 75 60
14.06.2019 14:00:00 9,5 -0,4 24 13 55 30 SSE 68 60
14.06.2019 13:00:00 8,7 -1,3 37 20 58 31 SSE 75 60
14.06.2019 12:00:00 8,7 -2,3 26 14 52 28 SE 54 60
14.06.2019 11:00:00 8,9 -3,2 36 19 60 33 S 49 60
14.06.2019 10:00:00 8,3 -3,1 39 21 82 45 SSE 51 60
14.06.2019 09:00:00 8,1 -3,5 52 28 77 42 S 66 60
14.06.2019 08:00:00 7,7 -3,7 54 29 80 43 S 57 60
14.06.2019 07:00:00 7,3 -4,1 35 19 74 40 SSW 56 60
14.06.2019 06:00:00 6,7 -4,7 52 28 84 45 SW 59 7

tt = temperature
td = dewpoint
ff = wind speed
fx = gusts
dd = wind direction
vv = visibility
sd = sunshine duration

Next stations